Time;durP1;ratioP1;P1;durP2;ratioP2;P2;SDS_P1;SDS_P2;PMS_P1;PMS_P2;Temp;Humidity;BMP_temperature;BMP_pressure;BME280_temperature;BME280_humidity;BME280_pressure;Samples;Min_cycle;Max_cycle;Signal;HPM_P1;HPM_P2
2021/09/22 00:01:54;;;;;;;5.25;1.77;;;20.20;55.60;;;;;;4993523;28;20053;-61
2021/09/22 00:04:20;;;;;;;4.35;2.00;;;20.20;55.60;;;;;;4993852;28;20482;-61
2021/09/22 00:06:45;;;;;;;4.20;1.80;;;20.20;55.60;;;;;;4993600;28;20030;-61
2021/09/22 00:09:11;;;;;;;3.97;1.90;;;20.20;55.60;;;;;;4993530;28;20022;-61
2021/09/22 00:11:36;;;;;;;3.35;1.75;;;20.20;55.60;;;;;;4993613;28;20501;-61
2021/09/22 00:14:02;;;;;;;4.03;1.75;;;20.20;55.60;;;;;;4993417;28;20022;-60
2021/09/22 00:16:28;;;;;;;5.15;2.10;;;20.20;55.60;;;;;;4993480;28;20031;-61
2021/09/22 00:18:54;;;;;;;4.35;2.03;;;20.20;55.60;;;;;;4993524;28;20019;-61
2021/09/22 00:21:20;;;;;;;3.28;1.60;;;20.20;55.60;;;;;;4992145;28;20037;-61
2021/09/22 00:23:46;;;;;;;4.40;2.08;;;20.20;55.60;;;;;;4993651;28;20375;-61
2021/09/22 00:26:12;;;;;;;4.60;2.20;;;20.20;55.60;;;;;;4995816;28;20488;-61
2021/09/22 00:28:37;;;;;;;5.28;2.22;;;20.20;55.60;;;;;;4997401;28;20026;-61
2021/09/22 00:31:03;;;;;;;4.57;2.03;;;20.20;55.60;;;;;;4997399;28;20023;-60
2021/09/22 00:33:28;;;;;;;5.13;2.30;;;20.20;55.60;;;;;;4997479;28;20103;-61
2021/09/22 00:35:54;;;;;;;4.60;1.90;;;20.20;55.60;;;;;;4997366;28;20018;-61
2021/09/22 00:38:19;;;;;;;4.90;2.10;;;20.10;55.60;;;;;;4997298;28;20508;-61
2021/09/22 00:40:47;;;;;;;4.65;1.90;;;20.10;55.60;;;;;;4995897;28;20030;-61
2021/09/22 00:43:13;;;;;;;5.57;2.30;;;20.10;55.60;;;;;;4995903;28;20518;-61
2021/09/22 00:45:38;;;;;;;4.90;2.40;;;20.10;55.60;;;;;;4997159;28;20029;-60
2021/09/22 00:48:04;;;;;;;4.10;2.10;;;20.10;55.60;;;;;;4996955;28;20122;-60
2021/09/22 00:50:30;;;;;;;5.95;2.28;;;20.10;55.60;;;;;;4997089;28;20033;-60
2021/09/22 00:52:56;;;;;;;4.90;2.38;;;20.10;55.70;;;;;;4995775;28;20023;-60
2021/09/22 00:55:21;;;;;;;5.13;2.10;;;20.10;55.60;;;;;;4996961;28;20137;-60
2021/09/22 00:57:54;;;;;;;4.43;2.25;;;20.10;55.60;;;;;;4996914;28;20033;-61
2021/09/22 01:00:27;;;;;;;4.40;2.17;;;20.10;55.60;;;;;;4996718;28;20019;-61
2021/09/22 01:02:53;;;;;;;4.63;2.13;;;20.10;55.70;;;;;;4996862;28;20034;-60
2021/09/22 01:05:22;;;;;;;5.57;2.20;;;20.00;55.70;;;;;;4996831;28;20504;-60
2021/09/22 01:07:48;;;;;;;4.97;2.15;;;20.10;55.60;;;;;;4995533;28;20069;-60
2021/09/22 01:10:14;;;;;;;4.85;2.42;;;20.10;55.60;;;;;;4996643;28;20030;-61
2021/09/22 01:12:40;;;;;;;5.97;2.70;;;20.10;55.60;;;;;;4995449;28;20053;-61
2021/09/22 01:15:06;;;;;;;5.90;2.55;;;20.00;55.60;;;;;;4996541;28;20065;-61
2021/09/22 01:17:32;;;;;;;4.93;2.30;;;20.00;55.60;;;;;;4996622;28;20058;-61
2021/09/22 01:20:08;;;;;;;4.97;2.33;;;20.10;55.60;;;;;;4996602;28;20377;-61
2021/09/22 01:22:34;;;;;;;5.22;2.40;;;20.00;55.60;;;;;;4996391;28;20438;-61
2021/09/22 01:24:59;;;;;;;6.63;2.47;;;20.00;55.70;;;;;;4996510;28;20031;-61
2021/09/22 01:27:26;;;;;;;5.30;2.67;;;20.00;55.60;;;;;;4996413;28;20046;-60
2021/09/22 01:29:52;;;;;;;4.63;2.17;;;20.00;55.60;;;;;;4996400;28;20382;-60
2021/09/22 01:32:19;;;;;;;7.20;2.30;;;20.00;55.60;;;;;;4996299;28;20474;-61
2021/09/22 01:34:45;;;;;;;3.97;1.83;;;20.00;55.60;;;;;;4995031;28;20080;-60
2021/09/22 01:37:11;;;;;;;5.65;2.53;;;20.00;55.60;;;;;;4994852;28;20053;-61
2021/09/22 01:39:42;;;;;;;5.55;2.55;;;20.00;55.60;;;;;;4994934;28;20030;-61
2021/09/22 01:42:09;;;;;;;5.43;2.22;;;20.00;55.60;;;;;;4996151;28;20049;-60
2021/09/22 01:44:36;;;;;;;5.63;2.30;;;20.00;55.60;;;;;;4996134;28;20022;-61
2021/09/22 01:47:03;;;;;;;5.28;2.63;;;20.00;55.60;;;;;;4994707;28;20033;-60
2021/09/22 01:49:28;;;;;;;5.63;2.30;;;20.00;55.60;;;;;;4996057;28;20398;-60
2021/09/22 01:52:00;;;;;;;5.90;2.55;;;20.00;55.70;;;;;;4994693;28;20026;-60
2021/09/22 01:54:26;;;;;;;4.70;2.30;;;20.00;55.60;;;;;;4995970;28;20109;-61
2021/09/22 01:56:52;;;;;;;6.03;2.78;;;20.00;55.60;;;;;;4995833;28;20113;-60
2021/09/22 01:59:18;;;;;;;6.18;2.83;;;20.00;55.60;;;;;;4995885;28;20538;-61
2021/09/22 02:01:44;;;;;;;6.35;3.00;;;20.00;55.60;;;;;;4995744;28;20121;-61
2021/09/22 02:04:09;;;;;;;6.65;2.63;;;20.00;55.60;;;;;;4995749;28;20041;-60
2021/09/22 02:06:35;;;;;;;6.60;3.05;;;20.00;55.60;;;;;;4995703;28;20030;-60
2021/09/22 02:09:00;;;;;;;5.47;2.53;;;20.00;55.60;;;;;;4995871;28;20034;-60
2021/09/22 02:11:26;;;;;;;5.80;2.45;;;20.00;55.60;;;;;;4995866;28;20084;-60
2021/09/22 02:13:51;;;;;;;6.07;2.63;;;20.00;55.60;;;;;;4995586;28;20026;-60
2021/09/22 02:16:17;;;;;;;5.50;2.60;;;20.00;55.60;;;;;;4994276;28;20117;-60
2021/09/22 02:18:42;;;;;;;5.85;2.38;;;19.90;55.60;;;;;;4995496;28;20030;-60
2021/09/22 02:21:11;;;;;;;4.82;2.40;;;20.00;55.60;;;;;;4995281;28;20034;-60
2021/09/22 02:23:38;;;;;;;5.47;2.85;;;20.00;55.60;;;;;;4995336;28;20525;-60
2021/09/22 02:26:05;;;;;;;5.07;2.58;;;19.90;55.60;;;;;;4995335;28;20364;-60
2021/09/22 02:28:31;;;;;;;5.10;2.53;;;20.00;55.60;;;;;;4995200;28;20034;-60
2021/09/22 02:30:57;;;;;;;5.38;2.50;;;19.90;55.60;;;;;;4995253;28;20193;-60
2021/09/22 02:33:22;;;;;;;4.93;2.25;;;19.90;55.60;;;;;;4995168;28;20037;-60
2021/09/22 02:35:48;;;;;;;4.35;2.13;;;19.90;55.60;;;;;;4995134;28;20098;-60
2021/09/22 02:38:13;;;;;;;5.85;2.60;;;19.90;55.60;;;;;;4995267;28;20033;-60
2021/09/22 02:40:39;;;;;;;4.97;2.20;;;19.90;55.60;;;;;;4995096;28;20031;-60
2021/09/22 02:43:05;;;;;;;5.20;2.28;;;19.90;55.60;;;;;;4995230;28;20033;-60
2021/09/22 02:45:31;;;;;;;5.85;2.50;;;19.90;55.60;;;;;;4995259;28;20018;-60
2021/09/22 02:47:56;;;;;;;5.07;2.38;;;19.90;55.60;;;;;;4994222;28;20046;-60
2021/09/22 02:50:22;;;;;;;5.38;2.40;;;19.90;55.60;;;;;;4994891;28;20026;-60
2021/09/22 02:52:48;;;;;;;5.63;2.50;;;19.90;55.60;;;;;;4994843;28;20474;-60
2021/09/22 02:55:13;;;;;;;4.80;2.42;;;19.90;55.60;;;;;;4994871;28;20428;-60
2021/09/22 02:57:39;;;;;;;5.38;2.35;;;19.90;55.60;;;;;;4994778;28;20030;-60
2021/09/22 03:00:06;;;;;;;4.60;2.47;;;19.90;55.60;;;;;;4994693;28;20019;-60
2021/09/22 03:02:32;;;;;;;6.22;2.97;;;19.90;55.60;;;;;;4994573;28;20177;-60
2021/09/22 03:04:58;;;;;;;4.30;2.38;;;19.90;55.60;;;;;;4994647;28;20494;-60
2021/09/22 03:07:23;;;;;;;5.07;2.50;;;19.80;55.60;;;;;;4994614;28;20105;-60
2021/09/22 03:09:49;;;;;;;5.72;2.72;;;19.80;55.60;;;;;;4994565;28;20065;-60
2021/09/22 03:12:15;;;;;;;5.35;2.35;;;19.80;55.60;;;;;;4994490;28;20037;-60
2021/09/22 03:14:40;;;;;;;5.82;2.63;;;19.90;55.60;;;;;;4994453;28;20033;-60
2021/09/22 03:17:06;;;;;;;5.18;2.38;;;19.80;55.50;;;;;;4994391;28;20036;-61
2021/09/22 03:19:31;;;;;;;4.68;2.05;;;19.80;55.60;;;;;;4994401;28;20038;-61
2021/09/22 03:21:57;;;;;;;4.90;2.45;;;19.80;55.60;;;;;;4994462;28;20031;-60
2021/09/22 03:24:22;;;;;;;5.80;2.55;;;19.80;55.50;;;;;;4994309;28;20434;-61
2021/09/22 03:26:49;;;;;;;5.40;2.67;;;19.80;55.60;;;;;;4994311;28;20038;-61
2021/09/22 03:29:15;;;;;;;5.50;2.95;;;19.80;55.60;;;;;;4994166;28;20022;-61
2021/09/22 03:31:42;;;;;;;5.35;2.30;;;19.80;55.60;;;;;;4994225;28;20033;-60
2021/09/22 03:34:09;;;;;;;5.93;2.85;;;19.80;55.60;;;;;;4994127;28;20027;-61
2021/09/22 03:36:34;;;;;;;4.45;2.30;;;19.80;55.50;;;;;;4994126;28;20379;-60
2021/09/22 03:39:00;;;;;;;4.25;2.20;;;19.80;55.60;;;;;;4992895;28;20045;-60
2021/09/22 03:41:26;;;;;;;5.85;2.40;;;19.80;55.60;;;;;;4994056;28;20030;-61
2021/09/22 03:43:51;;;;;;;4.20;2.17;;;19.80;55.60;;;;;;4994034;28;20109;-61
2021/09/22 03:46:17;;;;;;;6.18;2.95;;;19.80;55.60;;;;;;4994035;28;20538;-61
2021/09/22 03:48:43;;;;;;;4.68;2.22;;;19.80;55.60;;;;;;4993689;28;20422;-61
2021/09/22 03:51:08;;;;;;;4.88;2.42;;;19.80;55.50;;;;;;4993843;28;20470;-61
2021/09/22 03:53:34;;;;;;;4.82;2.38;;;19.80;55.50;;;;;;4994006;28;20026;-61
2021/09/22 03:55:59;;;;;;;5.05;2.40;;;19.80;55.60;;;;;;4993815;28;20030;-61
2021/09/22 03:58:26;;;;;;;4.93;2.63;;;19.80;55.50;;;;;;4992511;28;20559;-60
2021/09/22 04:00:51;;;;;;;5.18;2.40;;;19.70;55.50;;;;;;4992785;28;20034;-61
2021/09/22 04:03:17;;;;;;;5.20;2.53;;;19.80;55.50;;;;;;4993609;28;20056;-61
2021/09/22 04:05:43;;;;;;;5.63;2.40;;;19.80;55.50;;;;;;4992429;28;20022;-61
2021/09/22 04:08:08;;;;;;;5.18;2.63;;;19.70;55.60;;;;;;4993622;28;20493;-60
2021/09/22 04:10:34;;;;;;;5.13;2.42;;;19.80;55.50;;;;;;4993609;28;20022;-61
2021/09/22 04:12:59;;;;;;;4.63;2.40;;;19.70;55.50;;;;;;4993546;28;20026;-60
2021/09/22 04:15:25;;;;;;;4.72;2.25;;;19.70;55.50;;;;;;4993481;28;20019;-61
2021/09/22 04:17:51;;;;;;;5.65;2.53;;;19.70;55.50;;;;;;4993406;28;20482;-60
2021/09/22 04:20:16;;;;;;;5.15;2.50;;;19.70;55.50;;;;;;4993408;28;20466;-61
2021/09/22 04:22:42;;;;;;;5.72;2.90;;;19.70;55.40;;;;;;4993586;28;20328;-61
2021/09/22 04:25:10;;;;;;;4.90;2.20;;;19.70;55.50;;;;;;4993487;28;20026;-60
2021/09/22 04:27:36;;;;;;;4.57;1.98;;;19.70;55.40;;;;;;4992106;28;20443;-61
2021/09/22 04:30:03;;;;;;;7.15;2.85;;;19.80;55.30;;;;;;4993371;28;20054;-60
2021/09/22 04:32:29;;;;;;;4.75;2.20;;;19.80;55.40;;;;;;4993335;28;20026;-61
2021/09/22 04:34:54;;;;;;;4.82;2.17;;;19.80;55.40;;;;;;4993345;28;20104;-61
2021/09/22 04:37:21;;;;;;;5.00;2.35;;;19.80;55.40;;;;;;4993295;28;20102;-61
2021/09/22 04:39:47;;;;;;;5.30;2.22;;;19.80;55.30;;;;;;4993348;28;20026;-61
2021/09/22 04:42:12;;;;;;;6.13;2.55;;;19.80;55.30;;;;;;4993256;28;20041;-61
2021/09/22 04:44:38;;;;;;;5.18;2.38;;;19.80;55.30;;;;;;4991987;28;20026;-60
2021/09/22 04:47:04;;;;;;;5.80;2.25;;;19.80;55.30;;;;;;4993060;28;20034;-59
2021/09/22 04:49:30;;;;;;;5.32;2.10;;;19.80;55.20;;;;;;4992039;28;20038;-60
2021/09/22 04:51:56;;;;;;;5.65;2.60;;;19.80;55.20;;;;;;4993197;28;20049;-61
2021/09/22 04:54:22;;;;;;;5.13;2.33;;;19.80;55.20;;;;;;4993462;28;20061;-61
2021/09/22 04:56:47;;;;;;;5.28;2.72;;;19.80;55.20;;;;;;4993147;28;20027;-61
2021/09/22 04:59:13;;;;;;;4.82;2.42;;;19.80;55.20;;;;;;4993182;28;20030;-60
2021/09/22 05:01:39;;;;;;;5.13;2.47;;;19.80;55.20;;;;;;4992947;28;20042;-62
2021/09/22 05:04:06;;;;;;;4.80;2.33;;;19.80;55.20;;;;;;4993344;28;20027;-61
2021/09/22 05:06:32;;;;;;;4.97;2.08;;;19.80;55.20;;;;;;4993138;28;20482;-60
2021/09/22 05:08:57;;;;;;;5.75;2.70;;;19.80;55.20;;;;;;4991796;28;20033;-60
2021/09/22 05:11:25;;;;;;;4.65;2.20;;;19.80;55.20;;;;;;4994035;28;20026;-61
2021/09/22 05:13:51;;;;;;;5.50;2.50;;;19.80;55.20;;;;;;4996703;28;20023;-62
2021/09/22 05:16:17;;;;;;;5.05;2.33;;;19.80;55.20;;;;;;4996720;28;20026;-59
2021/09/22 05:18:42;;;;;;;4.88;2.17;;;19.90;55.10;;;;;;4996658;28;20034;-62
2021/09/22 05:21:08;;;;;;;5.20;2.45;;;19.80;55.10;;;;;;4996412;28;20376;-59
2021/09/22 05:23:33;;;;;;;4.93;2.10;;;19.90;55.10;;;;;;4996735;28;20022;-59
2021/09/22 05:25:59;;;;;;;4.85;2.10;;;19.80;55.10;;;;;;4996497;28;20022;-59
2021/09/22 05:28:24;;;;;;;4.50;1.98;;;19.90;55.10;;;;;;4996309;28;20490;-59
2021/09/22 05:30:50;;;;;;;4.03;2.40;;;19.90;55.10;;;;;;4995078;28;20034;-59
2021/09/22 05:33:16;;;;;;;5.28;2.33;;;19.90;55.10;;;;;;4996293;28;20076;-59
2021/09/22 05:35:41;;;;;;;4.63;2.50;;;19.90;55.10;;;;;;4995007;28;20482;-59
2021/09/22 05:38:07;;;;;;;5.35;2.40;;;19.90;55.00;;;;;;4996285;28;20386;-61
2021/09/22 05:40:33;;;;;;;5.20;2.58;;;19.80;55.10;;;;;;4996074;28;20041;-59
2021/09/22 05:42:59;;;;;;;5.40;2.53;;;19.90;55.10;;;;;;4996490;28;20030;-62
2021/09/22 05:45:25;;;;;;;4.32;2.10;;;19.90;55.00;;;;;;4996068;28;20027;-61
2021/09/22 05:47:50;;;;;;;4.95;2.55;;;19.90;55.00;;;;;;4995908;28;20081;-61
2021/09/22 05:50:16;;;;;;;4.88;2.05;;;19.90;54.90;;;;;;4995984;28;20173;-59
2021/09/22 05:52:41;;;;;;;5.03;2.30;;;19.90;54.90;;;;;;4995969;28;20381;-60
2021/09/22 05:55:07;;;;;;;5.60;2.60;;;19.90;54.90;;;;;;4978535;28;20037;-60
2021/09/22 05:57:33;;;;;;;5.38;2.53;;;19.90;54.90;;;;;;4995937;28;20080;-59
2021/09/22 05:59:59;;;;;;;4.28;2.25;;;19.90;54.90;;;;;;4997182;28;20037;-61
2021/09/22 06:02:24;;;;;;;4.28;2.00;;;20.00;55.00;;;;;;4995825;28;20371;-62
2021/09/22 06:04:50;;;;;;;4.70;2.25;;;20.00;54.70;;;;;;5002067;28;20029;-59
2021/09/22 06:07:15;;;;;;;5.32;2.47;;;20.00;54.80;;;;;;5000950;28;20056;-61
2021/09/22 06:09:41;;;;;;;5.03;2.15;;;20.00;54.80;;;;;;5002679;28;20031;-62
2021/09/22 06:12:06;;;;;;;6.00;2.00;;;20.00;54.70;;;;;;4995270;28;20030;-59
2021/09/22 06:14:32;;;;;;;5.93;2.55;;;20.00;54.70;;;;;;4994717;28;20486;-61
2021/09/22 06:16:58;;;;;;;3.80;1.98;;;20.00;54.70;;;;;;4996614;28;20160;-60
2021/09/22 06:19:23;;;;;;;5.50;2.25;;;20.00;54.80;;;;;;5003077;28;20104;-62
2021/09/22 06:21:49;;;;;;;6.88;2.90;;;20.00;54.70;;;;;;5007554;28;20037;-62
2021/09/22 06:24:18;;;;;;;4.97;2.30;;;20.00;54.80;;;;;;4993737;28;20034;-61
2021/09/22 06:26:44;;;;;;;5.55;2.50;;;20.00;54.80;;;;;;4994686;28;20034;-61
2021/09/22 06:29:10;;;;;;;5.82;2.33;;;20.00;54.70;;;;;;4994558;28;20093;-59
2021/09/22 06:31:37;;;;;;;5.78;2.42;;;20.00;54.70;;;;;;4993178;28;20038;-59
2021/09/22 06:34:03;;;;;;;5.10;2.33;;;20.00;54.70;;;;;;4996005;28;20033;-59
2021/09/22 06:36:29;;;;;;;7.70;2.70;;;20.10;54.80;;;;;;5014074;28;20108;-61
2021/09/22 06:38:54;;;;;;;5.28;2.50;;;20.10;54.70;;;;;;5013918;28;20109;-61
2021/09/22 06:41:20;;;;;;;4.72;2.20;;;20.10;54.70;;;;;;5012628;28;20076;-59
2021/09/22 06:43:46;;;;;;;5.57;2.65;;;20.10;54.70;;;;;;5012749;28;20022;-59
2021/09/22 06:46:12;;;;;;;6.05;2.70;;;20.10;54.70;;;;;;5013848;28;20034;-61
2021/09/22 06:48:37;;;;;;;4.78;2.20;;;20.10;54.70;;;;;;5013607;28;20046;-61
2021/09/22 06:51:03;;;;;;;5.35;2.22;;;20.10;54.80;;;;;;4994429;28;20065;-62
2021/09/22 06:53:29;;;;;;;6.63;2.33;;;20.10;54.80;;;;;;4993940;28;20029;-61
2021/09/22 06:55:54;;;;;;;5.05;2.15;;;20.10;54.80;;;;;;4994108;28;20486;-61
2021/09/22 06:58:20;;;;;;;4.65;2.00;;;20.20;54.70;;;;;;5004722;28;20029;-59
2021/09/22 07:00:45;;;;;;;5.65;2.40;;;20.20;54.70;;;;;;4993960;28;20026;-60
2021/09/22 07:03:11;;;;;;;4.40;2.08;;;20.20;54.70;;;;;;5008720;28;20117;-61
2021/09/22 07:05:43;;;;;;;5.22;2.35;;;20.20;54.60;;;;;;4993638;28;20022;-60
2021/09/22 07:08:08;;;;;;;6.45;2.35;;;20.20;54.60;;;;;;4993683;28;20201;-61
2021/09/22 07:10:36;;;;;;;6.05;2.42;;;20.30;54.80;;;;;;4993665;28;20201;-58
2021/09/22 07:13:01;;;;;;;5.72;2.25;;;20.20;54.70;;;;;;4993497;28;20126;-61
2021/09/22 07:15:27;;;;;;;7.00;2.78;;;20.30;54.70;;;;;;4993388;28;20529;-60
2021/09/22 07:17:53;;;;;;;6.75;2.47;;;20.30;54.70;;;;;;5008707;28;20072;-61
2021/09/22 07:20:18;;;;;;;5.55;2.78;;;20.30;54.70;;;;;;5013034;28;20026;-62
2021/09/22 07:22:44;;;;;;;6.35;2.88;;;20.30;54.70;;;;;;4993233;28;20046;-60
2021/09/22 07:25:10;;;;;;;4.75;2.00;;;20.30;54.60;;;;;;4993290;28;20158;-59
2021/09/22 07:27:36;;;;;;;6.63;2.70;;;20.30;54.60;;;;;;4992025;28;20516;-59
2021/09/22 07:30:02;;;;;;;6.68;2.30;;;20.40;54.70;;;;;;4993276;28;20521;-59
2021/09/22 07:32:28;;;;;;;5.80;2.42;;;20.40;54.70;;;;;;4993252;28;20041;-58
2021/09/22 07:34:53;;;;;;;4.80;2.20;;;20.40;54.70;;;;;;4992920;28;20031;-59
2021/09/22 07:37:20;;;;;;;6.13;2.45;;;20.40;54.60;;;;;;4993203;28;20042;-59
2021/09/22 07:39:46;;;;;;;6.30;2.65;;;20.40;54.60;;;;;;4992395;28;20029;-59
2021/09/22 07:42:12;;;;;;;6.00;2.45;;;20.50;54.60;;;;;;4993035;28;20489;-60
2021/09/22 07:44:45;;;;;;;4.65;1.92;;;20.50;54.60;;;;;;4992972;28;20026;-59
2021/09/22 07:47:13;;;;;;;4.88;2.40;;;20.50;54.60;;;;;;4992687;28;20034;-61
2021/09/22 07:49:40;;;;;;;5.15;2.13;;;20.50;54.50;;;;;;4999160;28;20030;-59
2021/09/22 07:52:05;;;;;;;5.80;2.47;;;20.50;54.50;;;;;;5012656;28;20083;-59
2021/09/22 07:54:31;;;;;;;5.13;2.58;;;20.50;54.50;;;;;;5012270;28;20018;-59
2021/09/22 07:56:56;;;;;;;5.50;2.30;;;20.50;54.50;;;;;;5012518;28;20087;-61
2021/09/22 07:59:22;;;;;;;5.20;2.40;;;20.50;54.60;;;;;;5004013;28;20359;-59
2021/09/22 08:01:47;;;;;;;4.47;2.15;;;20.50;54.60;;;;;;4992498;28;20430;-59
2021/09/22 08:04:14;;;;;;;4.20;1.83;;;20.50;54.70;;;;;;4992681;28;20036;-58
2021/09/22 08:06:40;;;;;;;7.38;2.30;;;20.50;54.60;;;;;;4992442;28;20112;-60
2021/09/22 08:09:06;;;;;;;6.63;2.42;;;20.50;54.70;;;;;;4992737;28;20113;-59
2021/09/22 08:11:31;;;;;;;5.18;2.30;;;20.60;54.70;;;;;;4992520;28;20030;-60
2021/09/22 08:13:57;;;;;;;5.50;2.35;;;20.50;54.60;;;;;;4992583;28;20022;-59
2021/09/22 08:16:22;;;;;;;5.45;2.70;;;20.60;54.60;;;;;;4992638;28;20406;-60
2021/09/22 08:18:48;;;;;;;4.63;2.10;;;20.60;54.60;;;;;;4992688;28;20026;-59
2021/09/22 08:21:14;;;;;;;5.00;2.25;;;20.70;54.60;;;;;;4992388;28;20117;-59
2021/09/22 08:23:40;;;;;;;6.78;2.70;;;20.60;54.50;;;;;;4992284;28;20023;-59
2021/09/22 08:26:07;;;;;;;6.22;2.30;;;20.70;54.50;;;;;;4999661;28;20108;-60
2021/09/22 08:28:33;;;;;;;7.20;2.42;;;20.60;54.70;;;;;;5012313;28;20026;-59
2021/09/22 08:30:58;;;;;;;6.10;2.65;;;20.70;54.60;;;;;;5012651;28;20018;-60
2021/09/22 08:33:24;;;;;;;4.75;2.03;;;20.70;54.60;;;;;;5012244;28;20064;-59
2021/09/22 08:35:49;;;;;;;5.45;2.42;;;20.70;54.70;;;;;;5011768;28;20022;-60
2021/09/22 08:38:15;;;;;;;4.78;2.15;;;20.70;54.70;;;;;;5002535;28;20648;-60
2021/09/22 08:40:41;;;;;;;6.25;2.25;;;20.70;54.60;;;;;;5012397;28;20026;-60
2021/09/22 08:43:07;;;;;;;5.25;2.05;;;20.70;54.70;;;;;;5012180;28;20038;-59
2021/09/22 08:45:34;;;;;;;4.40;2.08;;;20.70;54.70;;;;;;5011853;28;20088;-60
2021/09/22 08:48:00;;;;;;;4.75;2.03;;;20.70;54.90;;;;;;5015404;28;20042;-60
2021/09/22 08:50:26;;;;;;;5.10;2.22;;;20.70;54.90;;;;;;5015994;28;20025;-59
2021/09/22 08:52:51;;;;;;;4.68;1.95;;;20.70;55.00;;;;;;5001949;28;20077;-59
2021/09/22 08:55:17;;;;;;;4.47;2.17;;;20.70;55.00;;;;;;4996199;28;20034;-60
2021/09/22 08:57:43;;;;;;;5.10;2.13;;;20.70;54.90;;;;;;4996225;28;20030;-60
2021/09/22 09:00:11;;;;;;;5.38;2.72;;;20.70;54.90;;;;;;4995978;28;20026;-60
2021/09/22 09:02:44;;;;;;;4.97;2.20;;;20.70;55.00;;;;;;4995938;28;20066;-59
2021/09/22 09:05:11;;;;;;;5.30;2.45;;;20.70;55.00;;;;;;4995944;28;20038;-60
2021/09/22 09:07:51;;;;;;;5.13;1.88;;;20.70;54.90;;;;;;4995920;28;20033;-60
2021/09/22 09:10:19;;;;;;;5.85;2.20;;;20.70;55.00;;;;;;4996254;28;20089;-59
2021/09/22 09:13:00;;;;;;;6.22;2.80;;;20.80;54.90;;;;;;4995964;28;20038;-60
2021/09/22 09:15:35;;;;;;;5.13;2.25;;;20.80;54.90;;;;;;4995680;28;20566;-60
2021/09/22 09:18:09;;;;;;;4.55;2.10;;;20.80;54.80;;;;;;4995915;28;20022;-60
2021/09/22 09:20:34;;;;;;;5.03;2.20;;;20.80;54.90;;;;;;4995332;28;20045;-60
2021/09/22 09:23:07;;;;;;;4.55;2.25;;;20.80;54.90;;;;;;5012460;28;20038;-59
2021/09/22 09:25:43;;;;;;;4.57;1.85;;;20.90;54.80;;;;;;5015455;28;20034;-60
2021/09/22 09:28:28;;;;;;;4.35;2.13;;;20.90;54.80;;;;;;5013724;28;20100;-59
2021/09/22 09:31:01;;;;;;;5.00;2.28;;;21.00;54.60;;;;;;5013650;28;20030;-59
2021/09/22 09:33:47;;;;;;;5.35;1.98;;;20.90;54.60;;;;;;5014394;28;20033;-62
2021/09/22 09:36:35;;;;;;;6.35;2.75;;;21.00;54.60;;;;;;5014369;28;20037;-60
2021/09/22 09:39:11;;;;;;;5.70;2.53;;;21.00;54.60;;;;;;5015325;28;20030;-59
2021/09/22 09:41:41;;;;;;;5.10;2.25;;;21.00;54.50;;;;;;5015171;28;20041;-59
2021/09/22 09:44:10;;;;;;;5.47;2.55;;;21.00;54.40;;;;;;5014935;28;20025;-59
2021/09/22 09:46:37;;;;;;;4.68;2.17;;;21.00;54.60;;;;;;5014912;28;20104;-60
2021/09/22 09:49:07;;;;;;;5.63;2.70;;;21.00;54.60;;;;;;5013182;28;20038;-59
2021/09/22 09:51:35;;;;;;;4.30;2.13;;;21.00;54.60;;;;;;5013019;28;20034;-59
2021/09/22 09:54:24;;;;;;;4.90;2.03;;;21.00;54.60;;;;;;4995243;28;20030;-59
2021/09/22 09:56:52;;;;;;;4.45;2.17;;;21.10;54.50;;;;;;4995800;28;20077;-59
2021/09/22 09:59:19;;;;;;;4.90;2.08;;;21.10;54.60;;;;;;5006505;28;20112;-58
2021/09/22 10:01:51;;;;;;;4.28;1.83;;;21.10;54.60;;;;;;4994777;28;20382;-59
2021/09/22 10:04:19;;;;;;;5.55;2.10;;;21.10;54.60;;;;;;4995047;28;20038;-61
2021/09/22 10:06:46;;;;;;;6.28;2.45;;;21.10;54.50;;;;;;4994959;28;20022;-61
2021/09/22 10:09:12;;;;;;;5.65;2.28;;;21.10;54.50;;;;;;4995375;28;20038;-61
2021/09/22 10:11:41;;;;;;;6.28;2.00;;;21.20;54.40;;;;;;4994936;28;20378;-61
2021/09/22 10:14:08;;;;;;;7.75;2.50;;;21.20;54.30;;;;;;4994667;28;20033;-61
2021/09/22 10:16:35;;;;;;;4.30;2.00;;;21.20;54.30;;;;;;4994694;28;20027;-59
2021/09/22 10:19:02;;;;;;;4.47;2.00;;;21.30;54.30;;;;;;4994668;28;20477;-61
2021/09/22 10:21:30;;;;;;;5.25;1.80;;;21.30;54.20;;;;;;5007508;28;20041;-61
2021/09/22 10:23:58;;;;;;;4.18;1.90;;;21.30;54.20;;;;;;5014659;28;20101;-61
2021/09/22 10:26:25;;;;;;;4.63;1.90;;;21.40;54.00;;;;;;5014526;28;20030;-61
2021/09/22 10:28:52;;;;;;;6.50;2.45;;;21.50;54.10;;;;;;5013277;28;20481;-60
2021/09/22 10:31:21;;;;;;;5.60;2.28;;;21.50;54.10;;;;;;5012312;28;20125;-61
2021/09/22 10:33:47;;;;;;;3.03;1.42;;;21.50;53.80;;;;;;5005708;28;20056;-61
2021/09/22 10:36:15;;;;;;;4.50;1.70;;;21.50;53.70;;;;;;5004656;28;20057;-60
2021/09/22 10:38:44;;;;;;;4.45;2.17;;;21.50;53.80;;;;;;5011174;28;20022;-59
2021/09/22 10:41:22;;;;;;;4.45;2.13;;;21.60;53.70;;;;;;5011774;28;20456;-63
2021/09/22 10:43:47;;;;;;;4.68;2.10;;;21.70;53.60;;;;;;5009281;28;20104;-59
2021/09/22 10:46:16;;;;;;;5.50;2.10;;;21.70;53.50;;;;;;4997198;28;20125;-59
2021/09/22 10:48:58;;;;;;;4.75;1.92;;;21.80;53.50;;;;;;4995262;28;20046;-59
2021/09/22 10:51:29;;;;;;;3.83;1.80;;;21.80;53.50;;;;;;4997199;28;20505;-59
2021/09/22 10:54:12;;;;;;;5.90;2.00;;;22.00;53.40;;;;;;4999486;28;20401;-59
2021/09/22 10:57:15;;;;;;;5.03;1.90;;;22.00;53.20;;;;;;5006642;28;20084;-61
2021/09/22 10:59:41;;;;;;;5.43;2.25;;;22.00;53.30;;;;;;5010520;28;20072;-60
2021/09/22 11:02:08;;;;;;;5.00;2.00;;;22.00;53.20;;;;;;5010473;28;20667;-59
2021/09/22 11:05:01;;;;;;;4.10;1.70;;;22.00;53.20;;;;;;5011427;28;20493;-61
2021/09/22 11:07:55;;;;;;;4.22;1.90;;;22.10;53.30;;;;;;5004191;28;20077;-61
2021/09/22 11:10:46;;;;;;;3.83;1.90;;;22.10;53.20;;;;;;5011534;28;20069;-61
2021/09/22 11:13:26;;;;;;;4.88;1.95;;;22.20;53.20;;;;;;5013167;28;20034;-58
2021/09/22 11:16:10;;;;;;;6.00;2.00;;;22.20;53.00;;;;;;4989949;28;20034;-60
2021/09/22 11:18:40;;;;;;;4.20;1.98;;;22.20;53.10;;;;;;4992685;28;20026;-59
2021/09/22 11:21:05;;;;;;;4.85;2.10;;;22.30;53.00;;;;;;4994363;28;20080;-60
2021/09/22 11:23:31;;;;;;;4.90;2.03;;;22.40;53.00;;;;;;4994932;28;20125;-60
2021/09/22 11:26:07;;;;;;;3.35;1.58;;;22.40;53.00;;;;;;5008007;28;20486;-59
2021/09/22 11:28:34;;;;;;;3.10;1.42;;;22.50;52.80;;;;;;5009210;28;20040;-60
2021/09/22 11:30:59;;;;;;;4.65;2.08;;;22.50;52.70;;;;;;5012386;28;20034;-60
2021/09/22 11:33:26;;;;;;;5.93;1.88;;;22.50;52.70;;;;;;5012509;28;20032;-60
2021/09/22 11:35:52;;;;;;;3.45;1.60;;;22.60;52.60;;;;;;5012365;28;20053;-60
2021/09/22 11:38:19;;;;;;;3.20;1.70;;;22.70;52.50;;;;;;5012854;28;20022;-60
2021/09/22 11:40:48;;;;;;;3.22;1.55;;;22.70;52.30;;;;;;5005857;28;20508;-60
2021/09/22 11:43:16;;;;;;;4.30;1.90;;;22.80;52.20;;;;;;5008070;28;20083;-61
2021/09/22 11:45:48;;;;;;;5.63;1.90;;;22.90;52.20;;;;;;5008150;28;20018;-61
2021/09/22 11:48:16;;;;;;;4.45;1.83;;;22.90;52.10;;;;;;5012359;28;20054;-61
2021/09/22 11:50:44;;;;;;;6.40;3.38;;;23.00;51.00;;;;;;5008107;28;20026;-60
2021/09/22 11:53:15;;;;;;;12.65;4.35;;;22.90;50.00;;;;;;5012430;28;20022;-60
2021/09/22 11:55:45;;;;;;;11.07;3.88;;;22.80;49.30;;;;;;5011928;28;20548;-59
2021/09/22 11:58:14;;;;;;;10.77;3.30;;;22.80;49.50;;;;;;5012028;28;20037;-59
2021/09/22 12:00:42;;;;;;;11.95;4.47;;;22.80;49.90;;;;;;5010983;28;20021;-61
2021/09/22 12:03:09;;;;;;;8.32;4.50;;;22.80;49.40;;;;;;5011806;28;20080;-62
2021/09/22 12:05:36;;;;;;;9.95;4.20;;;22.80;48.80;;;;;;5010776;28;20038;-61
2021/09/22 12:08:02;;;;;;;7.63;3.88;;;22.90;48.70;;;;;;5012454;28;20440;-60
2021/09/22 12:10:27;;;;;;;8.02;3.75;;;22.90;48.70;;;;;;5011775;28;20032;-60
2021/09/22 12:13:01;;;;;;;8.32;3.42;;;22.90;49.20;;;;;;5011937;28;20486;-60
2021/09/22 12:15:27;;;;;;;10.00;3.88;;;22.80;49.40;;;;;;5010203;28;20104;-60
2021/09/22 12:17:53;;;;;;;9.10;4.10;;;22.80;48.90;;;;;;5003296;28;20476;-60
2021/09/22 12:20:20;;;;;;;8.95;4.20;;;22.80;48.50;;;;;;5010292;28;20026;-60
2021/09/22 12:23:03;;;;;;;11.35;3.97;;;22.90;48.30;;;;;;5002529;28;20042;-62
2021/09/22 12:25:31;;;;;;;9.05;3.88;;;22.90;48.40;;;;;;5007680;28;20572;-61
2021/09/22 12:27:59;;;;;;;10.00;3.20;;;22.90;49.30;;;;;;5006941;28;20398;-60
2021/09/22 12:30:36;;;;;;;8.73;3.95;;;22.90;48.70;;;;;;5006685;28;20544;-60
2021/09/22 12:33:04;;;;;;;7.55;3.08;;;22.80;48.30;;;;;;5008815;28;20412;-60
2021/09/22 12:35:33;;;;;;;8.48;3.38;;;23.00;48.80;;;;;;5009068;28;20097;-59
2021/09/22 12:38:04;;;;;;;7.80;3.80;;;22.80;48.60;;;;;;5005327;28;20026;-60
2021/09/22 12:40:32;;;;;;;11.65;4.00;;;22.80;47.80;;;;;;5009600;28;20028;-59
2021/09/22 12:43:01;;;;;;;11.38;4.60;;;22.80;47.80;;;;;;5010232;28;20045;-61
2021/09/22 12:45:32;;;;;;;7.28;2.72;;;22.80;49.40;;;;;;5006481;28;20034;-60
2021/09/22 12:48:04;;;;;;;5.80;2.47;;;22.90;49.70;;;;;;5001921;28;20199;-61